sensor_id;sensor_type;location;lat;lon;timestamp;P1;durP1;ratioP1;P2;durP2;ratioP2
10216;SDS011;5152;59.674;16.838;2024-02-26T00:02:00;5.67;;;2.97;;
10216;SDS011;5152;59.674;16.838;2024-02-26T00:04:27;4.60;;;3.13;;
10216;SDS011;5152;59.674;16.838;2024-02-26T00:06:54;7.87;;;5.13;;
10216;SDS011;5152;59.674;16.838;2024-02-26T00:09:21;12.63;;;5.30;;
10216;SDS011;5152;59.674;16.838;2024-02-26T00:11:48;5.03;;;3.53;;
10216;SDS011;5152;59.674;16.838;2024-02-26T00:14:15;10.10;;;6.27;;
10216;SDS011;5152;59.674;16.838;2024-02-26T00:16:42;11.97;;;8.07;;
10216;SDS011;5152;59.674;16.838;2024-02-26T00:19:11;4.30;;;3.20;;
10216;SDS011;5152;59.674;16.838;2024-02-26T00:21:39;6.20;;;3.40;;
10216;SDS011;5152;59.674;16.838;2024-02-26T00:24:07;6.50;;;3.40;;
10216;SDS011;5152;59.674;16.838;2024-02-26T00:26:34;6.67;;;3.47;;
10216;SDS011;5152;59.674;16.838;2024-02-26T00:29:01;3.03;;;2.60;;
10216;SDS011;5152;59.674;16.838;2024-02-26T00:31:28;4.67;;;3.13;;
10216;SDS011;5152;59.674;16.838;2024-02-26T00:33:55;3.57;;;2.40;;
10216;SDS011;5152;59.674;16.838;2024-02-26T00:36:23;4.77;;;3.27;;
10216;SDS011;5152;59.674;16.838;2024-02-26T00:38:50;6.23;;;3.97;;
10216;SDS011;5152;59.674;16.838;2024-02-26T00:41:17;7.23;;;4.57;;
10216;SDS011;5152;59.674;16.838;2024-02-26T00:43:44;2.80;;;2.50;;
10216;SDS011;5152;59.674;16.838;2024-02-26T00:46:11;4.50;;;2.67;;
10216;SDS011;5152;59.674;16.838;2024-02-26T00:48:37;8.13;;;5.13;;
10216;SDS011;5152;59.674;16.838;2024-02-26T00:51:05;10.07;;;4.30;;
10216;SDS011;5152;59.674;16.838;2024-02-26T00:53:34;5.47;;;4.07;;
10216;SDS011;5152;59.674;16.838;2024-02-26T00:56:01;7.13;;;4.50;;
10216;SDS011;5152;59.674;16.838;2024-02-26T00:58:28;4.20;;;3.63;;
10216;SDS011;5152;59.674;16.838;2024-02-26T01:00:54;15.30;;;5.93;;
10216;SDS011;5152;59.674;16.838;2024-02-26T01:03:21;11.87;;;5.13;;
10216;SDS011;5152;59.674;16.838;2024-02-26T01:05:48;11.87;;;4.83;;
10216;SDS011;5152;59.674;16.838;2024-02-26T01:08:15;8.17;;;5.30;;
10216;SDS011;5152;59.674;16.838;2024-02-26T01:10:44;6.57;;;4.53;;
10216;SDS011;5152;59.674;16.838;2024-02-26T01:13:10;10.50;;;4.87;;
10216;SDS011;5152;59.674;16.838;2024-02-26T01:15:37;7.37;;;3.70;;
10216;SDS011;5152;59.674;16.838;2024-02-26T01:18:04;14.03;;;7.57;;
10216;SDS011;5152;59.674;16.838;2024-02-26T01:20:31;11.10;;;6.30;;
10216;SDS011;5152;59.674;16.838;2024-02-26T01:22:58;7.17;;;3.80;;
10216;SDS011;5152;59.674;16.838;2024-02-26T01:25:25;7.90;;;4.80;;
10216;SDS011;5152;59.674;16.838;2024-02-26T01:27:53;10.10;;;6.07;;
10216;SDS011;5152;59.674;16.838;2024-02-26T01:30:20;11.17;;;5.30;;
10216;SDS011;5152;59.674;16.838;2024-02-26T01:32:47;15.20;;;8.33;;
10216;SDS011;5152;59.674;16.838;2024-02-26T01:35:14;6.53;;;4.07;;
10216;SDS011;5152;59.674;16.838;2024-02-26T01:37:41;14.87;;;8.13;;
10216;SDS011;5152;59.674;16.838;2024-02-26T01:40:09;11.67;;;7.07;;
10216;SDS011;5152;59.674;16.838;2024-02-26T01:42:38;8.60;;;5.30;;
10216;SDS011;5152;59.674;16.838;2024-02-26T01:45:07;10.83;;;5.93;;
10216;SDS011;5152;59.674;16.838;2024-02-26T01:47:46;14.80;;;8.13;;
10216;SDS011;5152;59.674;16.838;2024-02-26T01:50:13;10.57;;;6.37;;
10216;SDS011;5152;59.674;16.838;2024-02-26T01:52:40;11.23;;;6.00;;
10216;SDS011;5152;59.674;16.838;2024-02-26T01:55:07;14.83;;;7.80;;
10216;SDS011;5152;59.674;16.838;2024-02-26T01:57:34;5.63;;;3.97;;
10216;SDS011;5152;59.674;16.838;2024-02-26T02:00:01;6.20;;;3.97;;
10216;SDS011;5152;59.674;16.838;2024-02-26T02:02:32;15.70;;;10.03;;
10216;SDS011;5152;59.674;16.838;2024-02-26T02:04:59;18.50;;;9.50;;
10216;SDS011;5152;59.674;16.838;2024-02-26T02:07:26;12.03;;;6.57;;
10216;SDS011;5152;59.674;16.838;2024-02-26T02:09:54;15.40;;;7.67;;
10216;SDS011;5152;59.674;16.838;2024-02-26T02:12:21;15.47;;;8.80;;
10216;SDS011;5152;59.674;16.838;2024-02-26T02:14:48;13.20;;;7.40;;
10216;SDS011;5152;59.674;16.838;2024-02-26T02:17:15;6.17;;;4.33;;
10216;SDS011;5152;59.674;16.838;2024-02-26T02:19:43;12.07;;;8.30;;
10216;SDS011;5152;59.674;16.838;2024-02-26T02:22:11;4.63;;;3.30;;
10216;SDS011;5152;59.674;16.838;2024-02-26T02:24:38;9.33;;;6.50;;
10216;SDS011;5152;59.674;16.838;2024-02-26T02:27:05;18.87;;;10.23;;
10216;SDS011;5152;59.674;16.838;2024-02-26T02:29:32;15.93;;;9.60;;
10216;SDS011;5152;59.674;16.838;2024-02-26T02:31:59;15.80;;;9.37;;
10216;SDS011;5152;59.674;16.838;2024-02-26T02:34:27;14.63;;;8.30;;
10216;SDS011;5152;59.674;16.838;2024-02-26T02:36:55;12.37;;;8.57;;
10216;SDS011;5152;59.674;16.838;2024-02-26T02:39:23;7.30;;;4.90;;
10216;SDS011;5152;59.674;16.838;2024-02-26T02:41:50;13.20;;;8.83;;
10216;SDS011;5152;59.674;16.838;2024-02-26T02:44:17;5.90;;;4.63;;
10216;SDS011;5152;59.674;16.838;2024-02-26T02:46:44;20.50;;;10.03;;
10216;SDS011;5152;59.674;16.838;2024-02-26T02:49:10;17.70;;;9.40;;
10216;SDS011;5152;59.674;16.838;2024-02-26T02:51:37;8.97;;;6.13;;
10216;SDS011;5152;59.674;16.838;2024-02-26T02:54:04;6.63;;;3.73;;
10216;SDS011;5152;59.674;16.838;2024-02-26T02:56:32;14.83;;;9.60;;
10216;SDS011;5152;59.674;16.838;2024-02-26T02:59:00;17.13;;;8.63;;
10216;SDS011;5152;59.674;16.838;2024-02-26T03:01:27;9.47;;;7.03;;
10216;SDS011;5152;59.674;16.838;2024-02-26T03:03:54;9.83;;;6.10;;
10216;SDS011;5152;59.674;16.838;2024-02-26T03:06:21;15.37;;;9.43;;
10216;SDS011;5152;59.674;16.838;2024-02-26T03:08:48;11.30;;;5.97;;
10216;SDS011;5152;59.674;16.838;2024-02-26T03:11:15;12.30;;;7.90;;
10216;SDS011;5152;59.674;16.838;2024-02-26T03:13:43;22.90;;;12.20;;
10216;SDS011;5152;59.674;16.838;2024-02-26T03:16:10;19.73;;;12.30;;
10216;SDS011;5152;59.674;16.838;2024-02-26T03:18:38;26.10;;;13.67;;
10216;SDS011;5152;59.674;16.838;2024-02-26T03:21:05;16.93;;;11.80;;
10216;SDS011;5152;59.674;16.838;2024-02-26T03:23:32;18.57;;;11.53;;
10216;SDS011;5152;59.674;16.838;2024-02-26T03:26:01;22.50;;;11.53;;
10216;SDS011;5152;59.674;16.838;2024-02-26T03:28:28;21.70;;;12.67;;
10216;SDS011;5152;59.674;16.838;2024-02-26T03:30:57;33.83;;;14.50;;
10216;SDS011;5152;59.674;16.838;2024-02-26T03:33:24;19.83;;;10.23;;
10216;SDS011;5152;59.674;16.838;2024-02-26T03:35:51;28.83;;;13.53;;
10216;SDS011;5152;59.674;16.838;2024-02-26T03:38:18;25.93;;;14.07;;
10216;SDS011;5152;59.674;16.838;2024-02-26T03:40:44;26.50;;;14.77;;
10216;SDS011;5152;59.674;16.838;2024-02-26T03:43:11;40.90;;;18.77;;
10216;SDS011;5152;59.674;16.838;2024-02-26T03:45:38;33.23;;;16.40;;
10216;SDS011;5152;59.674;16.838;2024-02-26T03:48:07;31.80;;;16.47;;
10216;SDS011;5152;59.674;16.838;2024-02-26T03:50:34;29.67;;;15.50;;
10216;SDS011;5152;59.674;16.838;2024-02-26T03:53:01;22.43;;;11.27;;
10216;SDS011;5152;59.674;16.838;2024-02-26T03:55:28;18.63;;;10.47;;
10216;SDS011;5152;59.674;16.838;2024-02-26T03:57:55;24.30;;;11.27;;
10216;SDS011;5152;59.674;16.838;2024-02-26T04:00:21;16.00;;;7.77;;
10216;SDS011;5152;59.674;16.838;2024-02-26T04:02:48;27.20;;;12.47;;
10216;SDS011;5152;59.674;16.838;2024-02-26T04:05:17;18.47;;;10.27;;
10216;SDS011;5152;59.674;16.838;2024-02-26T04:07:44;24.37;;;14.30;;
10216;SDS011;5152;59.674;16.838;2024-02-26T04:10:11;25.00;;;16.03;;
10216;SDS011;5152;59.674;16.838;2024-02-26T04:12:38;13.90;;;7.97;;
10216;SDS011;5152;59.674;16.838;2024-02-26T04:15:07;28.77;;;18.90;;
10216;SDS011;5152;59.674;16.838;2024-02-26T04:17:35;20.07;;;13.50;;
10216;SDS011;5152;59.674;16.838;2024-02-26T04:20:03;25.00;;;17.67;;
10216;SDS011;5152;59.674;16.838;2024-02-26T04:22:33;20.43;;;14.40;;
10216;SDS011;5152;59.674;16.838;2024-02-26T04:25:00;23.73;;;14.07;;
10216;SDS011;5152;59.674;16.838;2024-02-26T04:27:28;13.80;;;8.27;;
10216;SDS011;5152;59.674;16.838;2024-02-26T04:29:55;24.27;;;14.90;;
10216;SDS011;5152;59.674;16.838;2024-02-26T04:32:21;18.53;;;10.63;;
10216;SDS011;5152;59.674;16.838;2024-02-26T04:34:48;17.27;;;9.87;;
10216;SDS011;5152;59.674;16.838;2024-02-26T04:37:15;20.53;;;12.23;;
10216;SDS011;5152;59.674;16.838;2024-02-26T04:39:43;21.33;;;11.13;;
10216;SDS011;5152;59.674;16.838;2024-02-26T04:42:10;22.63;;;14.00;;
10216;SDS011;5152;59.674;16.838;2024-02-26T04:44:37;13.20;;;8.13;;
10216;SDS011;5152;59.674;16.838;2024-02-26T04:47:04;12.63;;;7.37;;
10216;SDS011;5152;59.674;16.838;2024-02-26T04:49:32;19.10;;;11.23;;
10216;SDS011;5152;59.674;16.838;2024-02-26T04:52:00;16.80;;;8.77;;
10216;SDS011;5152;59.674;16.838;2024-02-26T04:54:27;22.40;;;12.63;;
10216;SDS011;5152;59.674;16.838;2024-02-26T04:56:55;18.60;;;11.80;;
10216;SDS011;5152;59.674;16.838;2024-02-26T04:59:22;17.20;;;10.97;;
10216;SDS011;5152;59.674;16.838;2024-02-26T05:01:49;8.50;;;5.83;;
10216;SDS011;5152;59.674;16.838;2024-02-26T05:04:17;23.87;;;14.23;;
10216;SDS011;5152;59.674;16.838;2024-02-26T05:06:44;16.13;;;10.33;;
10216;SDS011;5152;59.674;16.838;2024-02-26T05:09:11;12.07;;;7.97;;
10216;SDS011;5152;59.674;16.838;2024-02-26T05:11:38;20.87;;;13.40;;
10216;SDS011;5152;59.674;16.838;2024-02-26T05:14:06;8.70;;;5.73;;
10216;SDS011;5152;59.674;16.838;2024-02-26T05:16:33;11.17;;;7.70;;
10216;SDS011;5152;59.674;16.838;2024-02-26T05:19:00;23.60;;;15.80;;
10216;SDS011;5152;59.674;16.838;2024-02-26T05:21:27;18.57;;;11.77;;
10216;SDS011;5152;59.674;16.838;2024-02-26T05:23:54;20.63;;;12.57;;
10216;SDS011;5152;59.674;16.838;2024-02-26T05:26:21;19.00;;;12.60;;
10216;SDS011;5152;59.674;16.838;2024-02-26T05:28:48;17.50;;;10.33;;
10216;SDS011;5152;59.674;16.838;2024-02-26T05:31:17;23.73;;;12.27;;
10216;SDS011;5152;59.674;16.838;2024-02-26T05:33:44;21.90;;;12.10;;
10216;SDS011;5152;59.674;16.838;2024-02-26T05:36:17;24.63;;;14.63;;
10216;SDS011;5152;59.674;16.838;2024-02-26T05:38:44;15.97;;;8.17;;
10216;SDS011;5152;59.674;16.838;2024-02-26T05:41:12;15.27;;;10.63;;
10216;SDS011;5152;59.674;16.838;2024-02-26T05:43:39;15.80;;;9.67;;
10216;SDS011;5152;59.674;16.838;2024-02-26T05:46:06;16.97;;;10.87;;
10216;SDS011;5152;59.674;16.838;2024-02-26T05:48:34;18.47;;;10.93;;
10216;SDS011;5152;59.674;16.838;2024-02-26T05:51:01;25.03;;;13.53;;
10216;SDS011;5152;59.674;16.838;2024-02-26T05:53:28;25.73;;;16.97;;
10216;SDS011;5152;59.674;16.838;2024-02-26T05:55:55;21.20;;;12.73;;
10216;SDS011;5152;59.674;16.838;2024-02-26T05:58:21;16.20;;;9.10;;
10216;SDS011;5152;59.674;16.838;2024-02-26T06:00:48;21.13;;;13.40;;
10216;SDS011;5152;59.674;16.838;2024-02-26T06:03:15;25.13;;;12.87;;
10216;SDS011;5152;59.674;16.838;2024-02-26T06:05:43;17.70;;;11.87;;
10216;SDS011;5152;59.674;16.838;2024-02-26T06:08:10;18.17;;;10.83;;
10216;SDS011;5152;59.674;16.838;2024-02-26T06:10:37;14.33;;;8.87;;
10216;SDS011;5152;59.674;16.838;2024-02-26T06:13:05;21.67;;;14.53;;
10216;SDS011;5152;59.674;16.838;2024-02-26T06:15:31;19.67;;;10.90;;
10216;SDS011;5152;59.674;16.838;2024-02-26T06:17:58;21.23;;;12.43;;
10216;SDS011;5152;59.674;16.838;2024-02-26T06:20:25;26.60;;;15.67;;
10216;SDS011;5152;59.674;16.838;2024-02-26T06:22:53;22.13;;;11.90;;
10216;SDS011;5152;59.674;16.838;2024-02-26T06:25:20;17.67;;;10.60;;
10216;SDS011;5152;59.674;16.838;2024-02-26T06:27:47;22.10;;;13.03;;
10216;SDS011;5152;59.674;16.838;2024-02-26T06:30:14;22.17;;;13.87;;
10216;SDS011;5152;59.674;16.838;2024-02-26T06:32:41;14.53;;;10.07;;
10216;SDS011;5152;59.674;16.838;2024-02-26T06:35:08;26.10;;;14.83;;
10216;SDS011;5152;59.674;16.838;2024-02-26T06:37:36;19.50;;;10.70;;
10216;SDS011;5152;59.674;16.838;2024-02-26T06:40:05;11.50;;;7.63;;
10216;SDS011;5152;59.674;16.838;2024-02-26T06:42:33;22.93;;;13.87;;
10216;SDS011;5152;59.674;16.838;2024-02-26T06:45:00;19.37;;;13.07;;
10216;SDS011;5152;59.674;16.838;2024-02-26T06:47:29;21.57;;;12.87;;
10216;SDS011;5152;59.674;16.838;2024-02-26T06:49:56;19.67;;;12.67;;
10216;SDS011;5152;59.674;16.838;2024-02-26T06:52:23;15.63;;;8.97;;
10216;SDS011;5152;59.674;16.838;2024-02-26T06:54:51;35.93;;;18.57;;
10216;SDS011;5152;59.674;16.838;2024-02-26T06:57:19;26.30;;;15.43;;
10216;SDS011;5152;59.674;16.838;2024-02-26T06:59:46;17.60;;;13.23;;
10216;SDS011;5152;59.674;16.838;2024-02-26T07:02:13;21.50;;;12.30;;
10216;SDS011;5152;59.674;16.838;2024-02-26T07:04:41;17.87;;;11.23;;
10216;SDS011;5152;59.674;16.838;2024-02-26T07:07:08;19.57;;;11.63;;
10216;SDS011;5152;59.674;16.838;2024-02-26T07:09:35;20.93;;;13.60;;
10216;SDS011;5152;59.674;16.838;2024-02-26T07:12:02;13.93;;;9.33;;
10216;SDS011;5152;59.674;16.838;2024-02-26T07:14:31;15.90;;;9.63;;
10216;SDS011;5152;59.674;16.838;2024-02-26T07:16:59;23.27;;;13.73;;
10216;SDS011;5152;59.674;16.838;2024-02-26T07:19:25;16.27;;;11.07;;
10216;SDS011;5152;59.674;16.838;2024-02-26T07:21:52;11.80;;;7.83;;
10216;SDS011;5152;59.674;16.838;2024-02-26T07:24:19;18.60;;;12.23;;
10216;SDS011;5152;59.674;16.838;2024-02-26T07:26:46;13.17;;;9.40;;
10216;SDS011;5152;59.674;16.838;2024-02-26T07:29:13;12.27;;;8.23;;
10216;SDS011;5152;59.674;16.838;2024-02-26T07:31:41;14.67;;;9.20;;
10216;SDS011;5152;59.674;16.838;2024-02-26T07:34:08;15.10;;;7.67;;
10216;SDS011;5152;59.674;16.838;2024-02-26T07:36:35;5.77;;;4.20;;
10216;SDS011;5152;59.674;16.838;2024-02-26T07:39:02;13.03;;;9.67;;
10216;SDS011;5152;59.674;16.838;2024-02-26T07:41:29;8.70;;;5.27;;
10216;SDS011;5152;59.674;16.838;2024-02-26T07:43:56;12.07;;;8.97;;
10216;SDS011;5152;59.674;16.838;2024-02-26T07:46:23;9.07;;;5.73;;
10216;SDS011;5152;59.674;16.838;2024-02-26T07:48:51;14.83;;;8.70;;
10216;SDS011;5152;59.674;16.838;2024-02-26T07:51:18;9.87;;;7.53;;
10216;SDS011;5152;59.674;16.838;2024-02-26T07:53:44;11.03;;;8.03;;
10216;SDS011;5152;59.674;16.838;2024-02-26T07:56:12;7.87;;;5.93;;
10216;SDS011;5152;59.674;16.838;2024-02-26T07:58:39;10.13;;;5.13;;
10216;SDS011;5152;59.674;16.838;2024-02-26T08:01:05;11.03;;;7.70;;
10216;SDS011;5152;59.674;16.838;2024-02-26T08:03:32;5.73;;;4.57;;
10216;SDS011;5152;59.674;16.838;2024-02-26T08:06:00;9.63;;;6.60;;
10216;SDS011;5152;59.674;16.838;2024-02-26T08:08:27;9.30;;;7.43;;
10216;SDS011;5152;59.674;16.838;2024-02-26T08:10:54;9.73;;;6.00;;
10216;SDS011;5152;59.674;16.838;2024-02-26T08:13:21;4.50;;;3.53;;
10216;SDS011;5152;59.674;16.838;2024-02-26T08:15:48;5.00;;;2.80;;
10216;SDS011;5152;59.674;16.838;2024-02-26T08:18:15;8.63;;;6.17;;
10216;SDS011;5152;59.674;16.838;2024-02-26T08:20:43;7.17;;;5.50;;
10216;SDS011;5152;59.674;16.838;2024-02-26T08:23:11;4.63;;;3.17;;
10216;SDS011;5152;59.674;16.838;2024-02-26T08:25:38;11.80;;;7.50;;
10216;SDS011;5152;59.674;16.838;2024-02-26T08:28:05;5.57;;;3.87;;
10216;SDS011;5152;59.674;16.838;2024-02-26T08:30:32;10.30;;;7.03;;
10216;SDS011;5152;59.674;16.838;2024-02-26T08:32:59;12.70;;;7.87;;
10216;SDS011;5152;59.674;16.838;2024-02-26T08:35:26;10.43;;;8.60;;
10216;SDS011;5152;59.674;16.838;2024-02-26T08:37:53;9.07;;;6.83;;
10216;SDS011;5152;59.674;16.838;2024-02-26T08:40:21;9.70;;;7.13;;
10216;SDS011;5152;59.674;16.838;2024-02-26T08:42:48;10.97;;;7.43;;
10216;SDS011;5152;59.674;16.838;2024-02-26T08:45:15;8.50;;;6.00;;
10216;SDS011;5152;59.674;16.838;2024-02-26T08:47:44;13.47;;;8.13;;
10216;SDS011;5152;59.674;16.838;2024-02-26T08:50:11;10.93;;;7.57;;
10216;SDS011;5152;59.674;16.838;2024-02-26T08:52:38;18.00;;;10.63;;
10216;SDS011;5152;59.674;16.838;2024-02-26T08:55:05;12.90;;;7.40;;
10216;SDS011;5152;59.674;16.838;2024-02-26T08:57:35;13.63;;;10.40;;
10216;SDS011;5152;59.674;16.838;2024-02-26T09:00:04;9.10;;;6.77;;
10216;SDS011;5152;59.674;16.838;2024-02-26T09:02:32;17.73;;;10.43;;
10216;SDS011;5152;59.674;16.838;2024-02-26T09:04:58;16.10;;;11.17;;
10216;SDS011;5152;59.674;16.838;2024-02-26T09:07:25;15.53;;;11.33;;
10216;SDS011;5152;59.674;16.838;2024-02-26T09:09:52;20.03;;;13.73;;
10216;SDS011;5152;59.674;16.838;2024-02-26T09:12:19;17.33;;;11.47;;
10216;SDS011;5152;59.674;16.838;2024-02-26T09:14:48;17.13;;;11.00;;
10216;SDS011;5152;59.674;16.838;2024-02-26T09:17:14;12.20;;;7.53;;
10216;SDS011;5152;59.674;16.838;2024-02-26T09:19:41;13.93;;;10.30;;
10216;SDS011;5152;59.674;16.838;2024-02-26T09:22:09;16.60;;;10.03;;
10216;SDS011;5152;59.674;16.838;2024-02-26T09:24:36;15.43;;;9.53;;
10216;SDS011;5152;59.674;16.838;2024-02-26T09:27:04;11.27;;;8.23;;
10216;SDS011;5152;59.674;16.838;2024-02-26T09:29:31;12.07;;;9.30;;
10216;SDS011;5152;59.674;16.838;2024-02-26T09:31:59;16.53;;;5.80;;
10216;SDS011;5152;59.674;16.838;2024-02-26T09:34:26;12.37;;;8.40;;
10216;SDS011;5152;59.674;16.838;2024-02-26T09:36:53;10.13;;;7.50;;
10216;SDS011;5152;59.674;16.838;2024-02-26T09:39:20;11.43;;;8.03;;
10216;SDS011;5152;59.674;16.838;2024-02-26T09:41:47;11.93;;;8.57;;
10216;SDS011;5152;59.674;16.838;2024-02-26T09:44:15;15.83;;;9.07;;
10216;SDS011;5152;59.674;16.838;2024-02-26T09:46:44;14.53;;;9.40;;
10216;SDS011;5152;59.674;16.838;2024-02-26T09:49:13;16.90;;;11.50;;
10216;SDS011;5152;59.674;16.838;2024-02-26T09:51:42;15.63;;;9.73;;
10216;SDS011;5152;59.674;16.838;2024-02-26T09:54:09;13.57;;;9.50;;
10216;SDS011;5152;59.674;16.838;2024-02-26T09:56:36;12.87;;;9.40;;
10216;SDS011;5152;59.674;16.838;2024-02-26T09:59:05;12.37;;;7.90;;
10216;SDS011;5152;59.674;16.838;2024-02-26T10:01:32;15.10;;;9.80;;
10216;SDS011;5152;59.674;16.838;2024-02-26T10:04:00;15.50;;;8.43;;
10216;SDS011;5152;59.674;16.838;2024-02-26T10:06:29;14.13;;;9.37;;
10216;SDS011;5152;59.674;16.838;2024-02-26T10:08:56;10.70;;;5.73;;
10216;SDS011;5152;59.674;16.838;2024-02-26T10:11:24;12.20;;;8.93;;
10216;SDS011;5152;59.674;16.838;2024-02-26T10:13:51;11.73;;;8.47;;
10216;SDS011;5152;59.674;16.838;2024-02-26T10:16:17;10.07;;;8.00;;
10216;SDS011;5152;59.674;16.838;2024-02-26T10:18:45;9.77;;;7.33;;
10216;SDS011;5152;59.674;16.838;2024-02-26T10:21:12;13.67;;;9.17;;
10216;SDS011;5152;59.674;16.838;2024-02-26T10:23:43;14.73;;;8.67;;
10216;SDS011;5152;59.674;16.838;2024-02-26T10:26:10;14.83;;;7.83;;
10216;SDS011;5152;59.674;16.838;2024-02-26T10:28:37;8.23;;;4.63;;
10216;SDS011;5152;59.674;16.838;2024-02-26T10:31:04;16.23;;;11.67;;
10216;SDS011;5152;59.674;16.838;2024-02-26T10:33:33;11.37;;;8.00;;
10216;SDS011;5152;59.674;16.838;2024-02-26T10:36:01;11.63;;;8.10;;
10216;SDS011;5152;59.674;16.838;2024-02-26T10:38:29;14.43;;;8.80;;
10216;SDS011;5152;59.674;16.838;2024-02-26T10:40:57;14.87;;;8.77;;
10216;SDS011;5152;59.674;16.838;2024-02-26T10:43:25;16.23;;;10.33;;
10216;SDS011;5152;59.674;16.838;2024-02-26T10:45:52;15.57;;;9.13;;
10216;SDS011;5152;59.674;16.838;2024-02-26T10:48:20;10.27;;;8.20;;
10216;SDS011;5152;59.674;16.838;2024-02-26T10:50:47;10.70;;;8.17;;
10216;SDS011;5152;59.674;16.838;2024-02-26T10:53:16;6.77;;;5.37;;
10216;SDS011;5152;59.674;16.838;2024-02-26T10:55:46;13.47;;;8.23;;
10216;SDS011;5152;59.674;16.838;2024-02-26T10:58:16;11.53;;;7.77;;
10216;SDS011;5152;59.674;16.838;2024-02-26T11:00:43;13.53;;;8.27;;
10216;SDS011;5152;59.674;16.838;2024-02-26T11:03:12;11.67;;;7.07;;
10216;SDS011;5152;59.674;16.838;2024-02-26T11:05:41;15.67;;;8.00;;
10216;SDS011;5152;59.674;16.838;2024-02-26T11:08:08;6.03;;;4.63;;
10216;SDS011;5152;59.674;16.838;2024-02-26T11:10:36;12.03;;;7.73;;
10216;SDS011;5152;59.674;16.838;2024-02-26T11:13:03;12.50;;;8.33;;
10216;SDS011;5152;59.674;16.838;2024-02-26T11:15:33;13.93;;;8.00;;
10216;SDS011;5152;59.674;16.838;2024-02-26T11:18:00;16.93;;;8.77;;
10216;SDS011;5152;59.674;16.838;2024-02-26T11:20:28;17.00;;;9.00;;
10216;SDS011;5152;59.674;16.838;2024-02-26T11:22:55;12.90;;;8.70;;
10216;SDS011;5152;59.674;16.838;2024-02-26T11:25:22;15.93;;;9.87;;
10216;SDS011;5152;59.674;16.838;2024-02-26T11:27:51;14.20;;;10.30;;
10216;SDS011;5152;59.674;16.838;2024-02-26T11:30:22;12.60;;;8.30;;
10216;SDS011;5152;59.674;16.838;2024-02-26T11:32:52;12.67;;;9.27;;
10216;SDS011;5152;59.674;16.838;2024-02-26T11:35:19;17.63;;;11.53;;
10216;SDS011;5152;59.674;16.838;2024-02-26T11:37:55;12.57;;;9.30;;
10216;SDS011;5152;59.674;16.838;2024-02-26T11:40:23;18.00;;;9.83;;
10216;SDS011;5152;59.674;16.838;2024-02-26T11:42:50;11.93;;;7.33;;
10216;SDS011;5152;59.674;16.838;2024-02-26T11:48:21;17.70;;;10.37;;
10216;SDS011;5152;59.674;16.838;2024-02-26T11:50:49;16.53;;;9.57;;
10216;SDS011;5152;59.674;16.838;2024-02-26T11:53:21;11.70;;;8.27;;
10216;SDS011;5152;59.674;16.838;2024-02-26T11:55:48;13.27;;;8.60;;
10216;SDS011;5152;59.674;16.838;2024-02-26T11:58:48;12.93;;;9.00;;
10216;SDS011;5152;59.674;16.838;2024-02-26T12:01:39;14.37;;;8.50;;
10216;SDS011;5152;59.674;16.838;2024-02-26T12:04:11;15.60;;;9.00;;
10216;SDS011;5152;59.674;16.838;2024-02-26T12:09:30;14.53;;;8.53;;
10216;SDS011;5152;59.674;16.838;2024-02-26T12:11:57;15.03;;;9.30;;
10216;SDS011;5152;59.674;16.838;2024-02-26T12:14:25;17.47;;;10.13;;
10216;SDS011;5152;59.674;16.838;2024-02-26T12:16:52;12.20;;;8.20;;
10216;SDS011;5152;59.674;16.838;2024-02-26T12:19:21;14.57;;;8.37;;
10216;SDS011;5152;59.674;16.838;2024-02-26T12:21:50;13.97;;;8.10;;
10216;SDS011;5152;59.674;16.838;2024-02-26T12:24:18;11.17;;;7.60;;
10216;SDS011;5152;59.674;16.838;2024-02-26T12:26:46;11.33;;;7.30;;
10216;SDS011;5152;59.674;16.838;2024-02-26T12:29:13;11.80;;;8.00;;
10216;SDS011;5152;59.674;16.838;2024-02-26T12:31:40;10.87;;;7.63;;
10216;SDS011;5152;59.674;16.838;2024-02-26T12:34:07;13.87;;;7.43;;
10216;SDS011;5152;59.674;16.838;2024-02-26T12:36:37;9.47;;;6.00;;
10216;SDS011;5152;59.674;16.838;2024-02-26T12:39:05;8.43;;;6.70;;
10216;SDS011;5152;59.674;16.838;2024-02-26T12:41:32;9.17;;;6.10;;
10216;SDS011;5152;59.674;16.838;2024-02-26T12:44:00;9.90;;;5.93;;
10216;SDS011;5152;59.674;16.838;2024-02-26T12:46:27;7.63;;;5.27;;
10216;SDS011;5152;59.674;16.838;2024-02-26T12:48:55;8.33;;;5.73;;
10216;SDS011;5152;59.674;16.838;2024-02-26T12:51:24;9.40;;;5.93;;
10216;SDS011;5152;59.674;16.838;2024-02-26T12:53:53;7.13;;;4.73;;
10216;SDS011;5152;59.674;16.838;2024-02-26T12:56:20;9.77;;;5.77;;
10216;SDS011;5152;59.674;16.838;2024-02-26T12:58:48;15.40;;;9.33;;
10216;SDS011;5152;59.674;16.838;2024-02-26T13:01:16;8.40;;;6.20;;
10216;SDS011;5152;59.674;16.838;2024-02-26T13:03:44;7.70;;;5.00;;
10216;SDS011;5152;59.674;16.838;2024-02-26T13:06:11;22.40;;;13.37;;
10216;SDS011;5152;59.674;16.838;2024-02-26T13:08:38;10.60;;;7.20;;
10216;SDS011;5152;59.674;16.838;2024-02-26T13:11:07;8.70;;;5.60;;
10216;SDS011;5152;59.674;16.838;2024-02-26T13:13:34;12.17;;;8.57;;
10216;SDS011;5152;59.674;16.838;2024-02-26T13:16:02;11.47;;;7.27;;
10216;SDS011;5152;59.674;16.838;2024-02-26T13:18:30;10.27;;;6.77;;
10216;SDS011;5152;59.674;16.838;2024-02-26T13:21:07;12.93;;;6.17;;
10216;SDS011;5152;59.674;16.838;2024-02-26T13:23:35;20.50;;;11.00;;
10216;SDS011;5152;59.674;16.838;2024-02-26T13:26:02;8.83;;;5.87;;
10216;SDS011;5152;59.674;16.838;2024-02-26T13:28:30;7.67;;;4.00;;
10216;SDS011;5152;59.674;16.838;2024-02-26T13:30:58;15.13;;;7.03;;
10216;SDS011;5152;59.674;16.838;2024-02-26T13:33:26;7.30;;;4.87;;
10216;SDS011;5152;59.674;16.838;2024-02-26T13:35:53;7.80;;;5.20;;
10216;SDS011;5152;59.674;16.838;2024-02-26T13:38:20;5.47;;;3.37;;
10216;SDS011;5152;59.674;16.838;2024-02-26T13:40:47;7.73;;;3.87;;
10216;SDS011;5152;59.674;16.838;2024-02-26T13:43:14;5.83;;;3.70;;
10216;SDS011;5152;59.674;16.838;2024-02-26T13:45:43;3.93;;;2.97;;
10216;SDS011;5152;59.674;16.838;2024-02-26T13:48:10;5.07;;;3.40;;
10216;SDS011;5152;59.674;16.838;2024-02-26T13:50:38;4.43;;;3.37;;
10216;SDS011;5152;59.674;16.838;2024-02-26T13:53:05;3.97;;;2.73;;
10216;SDS011;5152;59.674;16.838;2024-02-26T13:55:32;6.13;;;4.03;;
10216;SDS011;5152;59.674;16.838;2024-02-26T13:57:59;4.13;;;3.33;;
10216;SDS011;5152;59.674;16.838;2024-02-26T14:00:27;5.17;;;3.50;;
10216;SDS011;5152;59.674;16.838;2024-02-26T14:02:56;3.50;;;2.80;;
10216;SDS011;5152;59.674;16.838;2024-02-26T14:05:23;3.67;;;2.70;;
10216;SDS011;5152;59.674;16.838;2024-02-26T14:07:49;3.17;;;2.40;;
10216;SDS011;5152;59.674;16.838;2024-02-26T14:10:17;2.80;;;2.20;;
10216;SDS011;5152;59.674;16.838;2024-02-26T14:12:43;10.67;;;3.17;;
10216;SDS011;5152;59.674;16.838;2024-02-26T14:15:10;5.57;;;3.80;;
10216;SDS011;5152;59.674;16.838;2024-02-26T14:17:37;4.60;;;3.17;;
10216;SDS011;5152;59.674;16.838;2024-02-26T14:20:06;3.80;;;2.57;;
10216;SDS011;5152;59.674;16.838;2024-02-26T14:22:34;5.20;;;3.07;;
10216;SDS011;5152;59.674;16.838;2024-02-26T14:25:01;4.90;;;2.73;;
10216;SDS011;5152;59.674;16.838;2024-02-26T14:27:27;3.67;;;2.63;;
10216;SDS011;5152;59.674;16.838;2024-02-26T14:29:54;4.87;;;3.70;;
10216;SDS011;5152;59.674;16.838;2024-02-26T14:32:21;6.00;;;4.50;;
10216;SDS011;5152;59.674;16.838;2024-02-26T14:34:48;3.33;;;2.80;;
10216;SDS011;5152;59.674;16.838;2024-02-26T14:37:16;3.30;;;2.63;;
10216;SDS011;5152;59.674;16.838;2024-02-26T14:39:43;4.33;;;3.07;;
10216;SDS011;5152;59.674;16.838;2024-02-26T14:42:12;2.60;;;2.17;;